sensor_id;sensor_type;location;lat;lon;timestamp;P1;durP1;ratioP1;P2;durP2;ratioP2
13374;SDS011;6756;51.354;15.754;2023-03-13T00:05:37;5.93;;;3.40;;
13374;SDS011;6756;51.354;15.754;2023-03-13T00:09:38;4.13;;;3.00;;
13374;SDS011;6756;51.354;15.754;2023-03-13T00:13:39;5.63;;;3.40;;
13374;SDS011;6756;51.354;15.754;2023-03-13T00:17:41;4.53;;;3.17;;
13374;SDS011;6756;51.354;15.754;2023-03-13T00:21:42;5.57;;;3.50;;
13374;SDS011;6756;51.354;15.754;2023-03-13T00:25:43;5.37;;;3.20;;
13374;SDS011;6756;51.354;15.754;2023-03-13T00:29:43;5.43;;;3.37;;
13374;SDS011;6756;51.354;15.754;2023-03-13T00:33:46;4.40;;;3.70;;
13374;SDS011;6756;51.354;15.754;2023-03-13T00:37:48;7.33;;;4.00;;
13374;SDS011;6756;51.354;15.754;2023-03-13T00:41:49;7.10;;;3.90;;
13374;SDS011;6756;51.354;15.754;2023-03-13T00:45:49;5.77;;;3.97;;
13374;SDS011;6756;51.354;15.754;2023-03-13T00:49:50;6.33;;;3.80;;
13374;SDS011;6756;51.354;15.754;2023-03-13T00:53:51;5.53;;;3.63;;
13374;SDS011;6756;51.354;15.754;2023-03-13T00:57:52;4.83;;;3.53;;
13374;SDS011;6756;51.354;15.754;2023-03-13T01:01:53;8.07;;;4.13;;
13374;SDS011;6756;51.354;15.754;2023-03-13T01:05:55;6.60;;;3.90;;
13374;SDS011;6756;51.354;15.754;2023-03-13T01:10:00;6.80;;;3.87;;
13374;SDS011;6756;51.354;15.754;2023-03-13T01:14:02;6.53;;;4.50;;
13374;SDS011;6756;51.354;15.754;2023-03-13T01:18:05;6.33;;;4.23;;
13374;SDS011;6756;51.354;15.754;2023-03-13T01:22:06;5.97;;;4.00;;
13374;SDS011;6756;51.354;15.754;2023-03-13T01:26:10;7.00;;;4.00;;
13374;SDS011;6756;51.354;15.754;2023-03-13T01:30:11;6.73;;;3.90;;
13374;SDS011;6756;51.354;15.754;2023-03-13T01:34:12;8.40;;;4.17;;
13374;SDS011;6756;51.354;15.754;2023-03-13T01:38:13;6.40;;;3.80;;
13374;SDS011;6756;51.354;15.754;2023-03-13T01:42:14;7.30;;;4.10;;
13374;SDS011;6756;51.354;15.754;2023-03-13T01:46:16;7.07;;;3.90;;
13374;SDS011;6756;51.354;15.754;2023-03-13T01:50:23;7.37;;;4.17;;
13374;SDS011;6756;51.354;15.754;2023-03-13T01:58:48;6.63;;;3.83;;
13374;SDS011;6756;51.354;15.754;2023-03-13T02:02:54;5.77;;;3.97;;
13374;SDS011;6756;51.354;15.754;2023-03-13T02:06:59;4.97;;;3.13;;
13374;SDS011;6756;51.354;15.754;2023-03-13T02:15:36;7.17;;;3.90;;
13374;SDS011;6756;51.354;15.754;2023-03-13T02:23:44;7.77;;;3.80;;
13374;SDS011;6756;51.354;15.754;2023-03-13T02:28:00;6.07;;;4.07;;
13374;SDS011;6756;51.354;15.754;2023-03-13T02:32:04;9.03;;;4.43;;
13374;SDS011;6756;51.354;15.754;2023-03-13T02:36:06;12.53;;;4.90;;
13374;SDS011;6756;51.354;15.754;2023-03-13T02:40:08;5.77;;;4.33;;
13374;SDS011;6756;51.354;15.754;2023-03-13T02:44:13;7.20;;;3.80;;
13374;SDS011;6756;51.354;15.754;2023-03-13T02:48:13;9.23;;;4.90;;
13374;SDS011;6756;51.354;15.754;2023-03-13T02:52:22;7.97;;;4.47;;
13374;SDS011;6756;51.354;15.754;2023-03-13T02:56:27;5.50;;;4.03;;
13374;SDS011;6756;51.354;15.754;2023-03-13T03:00:31;9.83;;;4.53;;
13374;SDS011;6756;51.354;15.754;2023-03-13T03:04:31;9.77;;;4.57;;
13374;SDS011;6756;51.354;15.754;2023-03-13T03:08:32;7.03;;;4.30;;
13374;SDS011;6756;51.354;15.754;2023-03-13T03:12:34;9.03;;;4.77;;
13374;SDS011;6756;51.354;15.754;2023-03-13T03:16:34;11.50;;;4.73;;
13374;SDS011;6756;51.354;15.754;2023-03-13T03:20:35;9.87;;;4.27;;
13374;SDS011;6756;51.354;15.754;2023-03-13T03:24:36;10.70;;;4.07;;
13374;SDS011;6756;51.354;15.754;2023-03-13T03:28:37;9.47;;;4.67;;
13374;SDS011;6756;51.354;15.754;2023-03-13T03:32:38;8.83;;;4.40;;
13374;SDS011;6756;51.354;15.754;2023-03-13T03:36:39;10.87;;;4.40;;
13374;SDS011;6756;51.354;15.754;2023-03-13T03:40:39;8.93;;;5.00;;
13374;SDS011;6756;51.354;15.754;2023-03-13T03:44:40;9.13;;;4.00;;
13374;SDS011;6756;51.354;15.754;2023-03-13T03:48:41;10.47;;;4.93;;
13374;SDS011;6756;51.354;15.754;2023-03-13T03:52:42;6.57;;;3.60;;
13374;SDS011;6756;51.354;15.754;2023-03-13T03:56:43;10.00;;;4.33;;
13374;SDS011;6756;51.354;15.754;2023-03-13T04:00:44;11.53;;;4.23;;
13374;SDS011;6756;51.354;15.754;2023-03-13T04:04:46;13.00;;;4.93;;
13374;SDS011;6756;51.354;15.754;2023-03-13T04:08:46;6.07;;;3.90;;
13374;SDS011;6756;51.354;15.754;2023-03-13T04:12:47;10.30;;;4.43;;
13374;SDS011;6756;51.354;15.754;2023-03-13T04:16:48;9.40;;;4.10;;
13374;SDS011;6756;51.354;15.754;2023-03-13T04:20:49;11.40;;;5.03;;
13374;SDS011;6756;51.354;15.754;2023-03-13T04:24:49;8.67;;;5.10;;
13374;SDS011;6756;51.354;15.754;2023-03-13T04:28:50;11.27;;;5.00;;
13374;SDS011;6756;51.354;15.754;2023-03-13T04:32:51;9.33;;;4.20;;
13374;SDS011;6756;51.354;15.754;2023-03-13T04:36:52;11.03;;;4.63;;
13374;SDS011;6756;51.354;15.754;2023-03-13T04:40:54;13.73;;;4.77;;
13374;SDS011;6756;51.354;15.754;2023-03-13T04:44:54;13.13;;;5.20;;
13374;SDS011;6756;51.354;15.754;2023-03-13T04:48:55;9.10;;;4.43;;
13374;SDS011;6756;51.354;15.754;2023-03-13T04:52:56;9.90;;;4.27;;
13374;SDS011;6756;51.354;15.754;2023-03-13T04:56:57;9.43;;;4.50;;
13374;SDS011;6756;51.354;15.754;2023-03-13T05:00:57;9.13;;;3.90;;
13374;SDS011;6756;51.354;15.754;2023-03-13T05:04:58;8.47;;;4.27;;
13374;SDS011;6756;51.354;15.754;2023-03-13T05:08:59;7.83;;;3.70;;
13374;SDS011;6756;51.354;15.754;2023-03-13T05:13:00;9.37;;;4.53;;
13374;SDS011;6756;51.354;15.754;2023-03-13T05:17:01;14.87;;;5.07;;
13374;SDS011;6756;51.354;15.754;2023-03-13T05:21:02;9.53;;;4.80;;
13374;SDS011;6756;51.354;15.754;2023-03-13T05:25:03;9.97;;;4.37;;
13374;SDS011;6756;51.354;15.754;2023-03-13T05:29:04;9.93;;;4.47;;
13374;SDS011;6756;51.354;15.754;2023-03-13T05:33:05;13.13;;;4.67;;
13374;SDS011;6756;51.354;15.754;2023-03-13T05:37:06;11.33;;;4.00;;
13374;SDS011;6756;51.354;15.754;2023-03-13T05:41:07;12.90;;;4.10;;
13374;SDS011;6756;51.354;15.754;2023-03-13T05:45:08;10.50;;;3.40;;
13374;SDS011;6756;51.354;15.754;2023-03-13T05:49:09;10.13;;;3.87;;
13374;SDS011;6756;51.354;15.754;2023-03-13T05:53:10;13.67;;;4.30;;
13374;SDS011;6756;51.354;15.754;2023-03-13T05:57:11;7.93;;;3.57;;
13374;SDS011;6756;51.354;15.754;2023-03-13T06:01:15;8.93;;;3.50;;
13374;SDS011;6756;51.354;15.754;2023-03-13T06:05:15;9.23;;;4.27;;
13374;SDS011;6756;51.354;15.754;2023-03-13T06:09:16;12.07;;;3.73;;
13374;SDS011;6756;51.354;15.754;2023-03-13T06:13:17;11.43;;;4.17;;
13374;SDS011;6756;51.354;15.754;2023-03-13T06:17:18;11.10;;;4.20;;
13374;SDS011;6756;51.354;15.754;2023-03-13T06:21:19;10.43;;;4.00;;
13374;SDS011;6756;51.354;15.754;2023-03-13T06:25:20;10.00;;;4.67;;
13374;SDS011;6756;51.354;15.754;2023-03-13T06:29:22;9.93;;;4.17;;
13374;SDS011;6756;51.354;15.754;2023-03-13T06:33:23;10.60;;;4.33;;
13374;SDS011;6756;51.354;15.754;2023-03-13T06:37:25;9.90;;;4.57;;
13374;SDS011;6756;51.354;15.754;2023-03-13T06:41:26;8.27;;;4.40;;
13374;SDS011;6756;51.354;15.754;2023-03-13T06:45:26;10.43;;;4.70;;
13374;SDS011;6756;51.354;15.754;2023-03-13T06:49:27;10.63;;;3.83;;
13374;SDS011;6756;51.354;15.754;2023-03-13T06:53:28;9.97;;;3.97;;
13374;SDS011;6756;51.354;15.754;2023-03-13T06:57:29;8.63;;;3.77;;
13374;SDS011;6756;51.354;15.754;2023-03-13T07:01:29;11.27;;;4.53;;
13374;SDS011;6756;51.354;15.754;2023-03-13T07:05:30;8.17;;;4.40;;
13374;SDS011;6756;51.354;15.754;2023-03-13T07:09:31;12.43;;;4.80;;
13374;SDS011;6756;51.354;15.754;2023-03-13T07:13:32;10.67;;;4.93;;
13374;SDS011;6756;51.354;15.754;2023-03-13T07:17:33;11.70;;;5.00;;
13374;SDS011;6756;51.354;15.754;2023-03-13T07:21:34;9.93;;;5.90;;
13374;SDS011;6756;51.354;15.754;2023-03-13T07:25:35;10.57;;;5.20;;
13374;SDS011;6756;51.354;15.754;2023-03-13T07:29:36;11.47;;;5.43;;
13374;SDS011;6756;51.354;15.754;2023-03-13T07:33:36;10.03;;;5.10;;
13374;SDS011;6756;51.354;15.754;2023-03-13T07:37:37;11.50;;;5.03;;
13374;SDS011;6756;51.354;15.754;2023-03-13T07:41:38;9.07;;;4.70;;
13374;SDS011;6756;51.354;15.754;2023-03-13T07:45:48;9.60;;;4.30;;
13374;SDS011;6756;51.354;15.754;2023-03-13T07:49:56;8.23;;;4.40;;
13374;SDS011;6756;51.354;15.754;2023-03-13T07:53:56;9.03;;;4.17;;
13374;SDS011;6756;51.354;15.754;2023-03-13T07:57:57;8.87;;;4.17;;
13374;SDS011;6756;51.354;15.754;2023-03-13T08:01:58;8.07;;;3.60;;
13374;SDS011;6756;51.354;15.754;2023-03-13T08:06:02;8.00;;;3.73;;
13374;SDS011;6756;51.354;15.754;2023-03-13T08:10:11;12.07;;;4.00;;
13374;SDS011;6756;51.354;15.754;2023-03-13T08:14:15;9.57;;;3.90;;
13374;SDS011;6756;51.354;15.754;2023-03-13T08:18:16;12.03;;;3.90;;
13374;SDS011;6756;51.354;15.754;2023-03-13T08:22:17;6.27;;;3.20;;
13374;SDS011;6756;51.354;15.754;2023-03-13T08:26:18;8.67;;;3.07;;
13374;SDS011;6756;51.354;15.754;2023-03-13T08:30:21;6.23;;;3.50;;
13374;SDS011;6756;51.354;15.754;2023-03-13T08:34:21;10.20;;;3.37;;
13374;SDS011;6756;51.354;15.754;2023-03-13T08:38:22;9.37;;;3.27;;
13374;SDS011;6756;51.354;15.754;2023-03-13T08:42:23;7.30;;;3.40;;
13374;SDS011;6756;51.354;15.754;2023-03-13T08:46:24;8.63;;;3.57;;
13374;SDS011;6756;51.354;15.754;2023-03-13T08:50:25;10.73;;;3.20;;
13374;SDS011;6756;51.354;15.754;2023-03-13T08:54:26;6.90;;;2.57;;
13374;SDS011;6756;51.354;15.754;2023-03-13T08:58:27;6.60;;;2.40;;
13374;SDS011;6756;51.354;15.754;2023-03-13T09:02:27;4.73;;;2.47;;
13374;SDS011;6756;51.354;15.754;2023-03-13T09:06:28;9.20;;;2.73;;
13374;SDS011;6756;51.354;15.754;2023-03-13T09:10:31;5.90;;;2.50;;
13374;SDS011;6756;51.354;15.754;2023-03-13T09:14:32;7.07;;;2.67;;
13374;SDS011;6756;51.354;15.754;2023-03-13T09:18:33;8.60;;;2.60;;
13374;SDS011;6756;51.354;15.754;2023-03-13T09:22:34;6.40;;;2.53;;
13374;SDS011;6756;51.354;15.754;2023-03-13T09:26:35;7.23;;;3.07;;
13374;SDS011;6756;51.354;15.754;2023-03-13T09:30:36;5.60;;;2.20;;
13374;SDS011;6756;51.354;15.754;2023-03-13T09:34:37;6.00;;;2.20;;
13374;SDS011;6756;51.354;15.754;2023-03-13T09:38:40;9.97;;;2.40;;
13374;SDS011;6756;51.354;15.754;2023-03-13T09:42:52;7.40;;;2.40;;
13374;SDS011;6756;51.354;15.754;2023-03-13T09:47:04;11.10;;;2.70;;
13374;SDS011;6756;51.354;15.754;2023-03-13T09:51:14;7.50;;;2.40;;
13374;SDS011;6756;51.354;15.754;2023-03-13T09:55:29;6.73;;;2.80;;
13374;SDS011;6756;51.354;15.754;2023-03-13T10:03:43;6.20;;;1.90;;
13374;SDS011;6756;51.354;15.754;2023-03-13T10:08:15;3.87;;;1.67;;
13374;SDS011;6756;51.354;15.754;2023-03-13T10:12:28;5.90;;;1.70;;
13374;SDS011;6756;51.354;15.754;2023-03-13T10:20:38;5.87;;;1.80;;
13374;SDS011;6756;51.354;15.754;2023-03-13T10:28:51;3.40;;;1.40;;
13374;SDS011;6756;51.354;15.754;2023-03-13T10:32:56;4.27;;;1.47;;
13374;SDS011;6756;51.354;15.754;2023-03-13T10:37:16;5.73;;;1.70;;
13374;SDS011;6756;51.354;15.754;2023-03-13T10:41:32;4.17;;;1.40;;
13374;SDS011;6756;51.354;15.754;2023-03-13T10:45:36;4.27;;;2.00;;
13374;SDS011;6756;51.354;15.754;2023-03-13T10:49:45;4.57;;;1.50;;
13374;SDS011;6756;51.354;15.754;2023-03-13T10:53:49;3.93;;;1.30;;
13374;SDS011;6756;51.354;15.754;2023-03-13T10:58:03;2.63;;;1.20;;
13374;SDS011;6756;51.354;15.754;2023-03-13T11:02:22;3.80;;;1.40;;
13374;SDS011;6756;51.354;15.754;2023-03-13T11:06:27;2.53;;;1.30;;
13374;SDS011;6756;51.354;15.754;2023-03-13T11:10:29;5.63;;;1.40;;
13374;SDS011;6756;51.354;15.754;2023-03-13T11:14:31;4.57;;;1.40;;
13374;SDS011;6756;51.354;15.754;2023-03-13T11:18:38;3.83;;;1.20;;
13374;SDS011;6756;51.354;15.754;2023-03-13T11:22:52;3.93;;;1.50;;
13374;SDS011;6756;51.354;15.754;2023-03-13T11:31:46;6.00;;;2.03;;
13374;SDS011;6756;51.354;15.754;2023-03-13T11:36:18;3.67;;;1.50;;
13374;SDS011;6756;51.354;15.754;2023-03-13T11:40:31;3.30;;;1.43;;
13374;SDS011;6756;51.354;15.754;2023-03-13T12:01:31;3.33;;;1.63;;
13374;SDS011;6756;51.354;15.754;2023-03-13T12:05:39;4.33;;;2.00;;
13374;SDS011;6756;51.354;15.754;2023-03-13T12:09:52;3.33;;;1.70;;
13374;SDS011;6756;51.354;15.754;2023-03-13T12:22:22;3.20;;;1.70;;
13374;SDS011;6756;51.354;15.754;2023-03-13T12:27:31;4.13;;;1.53;;
13374;SDS011;6756;51.354;15.754;2023-03-13T12:31:47;3.57;;;1.80;;
13374;SDS011;6756;51.354;15.754;2023-03-13T12:36:08;2.73;;;1.60;;
13374;SDS011;6756;51.354;15.754;2023-03-13T12:40:20;4.23;;;1.80;;
13374;SDS011;6756;51.354;15.754;2023-03-13T12:44:23;1.90;;;1.50;;
13374;SDS011;6756;51.354;15.754;2023-03-13T12:48:35;5.20;;;1.60;;
13374;SDS011;6756;51.354;15.754;2023-03-13T13:01:35;3.83;;;1.80;;
13374;SDS011;6756;51.354;15.754;2023-03-13T13:05:58;2.40;;;1.30;;
13374;SDS011;6756;51.354;15.754;2023-03-13T13:10:14;3.67;;;1.77;;
13374;SDS011;6756;51.354;15.754;2023-03-13T13:18:26;3.97;;;1.63;;
13374;SDS011;6756;51.354;15.754;2023-03-13T13:26:37;2.30;;;1.20;;
13374;SDS011;6756;51.354;15.754;2023-03-13T13:30:38;3.23;;;1.30;;
13374;SDS011;6756;51.354;15.754;2023-03-13T13:38:52;3.53;;;1.40;;
13374;SDS011;6756;51.354;15.754;2023-03-13T13:46:58;3.37;;;1.60;;
13374;SDS011;6756;51.354;15.754;2023-03-13T14:03:24;3.07;;;1.30;;
13374;SDS011;6756;51.354;15.754;2023-03-13T14:11:36;2.50;;;1.30;;
13374;SDS011;6756;51.354;15.754;2023-03-13T14:15:40;2.80;;;1.23;;
13374;SDS011;6756;51.354;15.754;2023-03-13T14:19:42;4.27;;;1.30;;
13374;SDS011;6756;51.354;15.754;2023-03-13T14:23:44;2.43;;;1.70;;
13374;SDS011;6756;51.354;15.754;2023-03-13T14:27:46;3.13;;;1.50;;
13374;SDS011;6756;51.354;15.754;2023-03-13T14:31:52;1.90;;;1.30;;
13374;SDS011;6756;51.354;15.754;2023-03-13T14:35:53;4.17;;;1.40;;
13374;SDS011;6756;51.354;15.754;2023-03-13T14:39:57;2.43;;;1.10;;
13374;SDS011;6756;51.354;15.754;2023-03-13T14:44:27;2.17;;;1.30;;
13374;SDS011;6756;51.354;15.754;2023-03-13T14:48:31;3.33;;;1.50;;
13374;SDS011;6756;51.354;15.754;2023-03-13T14:52:33;1.90;;;1.47;;
13374;SDS011;6756;51.354;15.754;2023-03-13T14:56:35;1.73;;;1.00;;
13374;SDS011;6756;51.354;15.754;2023-03-13T15:00:44;1.60;;;1.20;;
13374;SDS011;6756;51.354;15.754;2023-03-13T15:04:52;2.93;;;1.10;;
13374;SDS011;6756;51.354;15.754;2023-03-13T15:09:14;2.50;;;1.20;;
13374;SDS011;6756;51.354;15.754;2023-03-13T15:17:25;3.40;;;1.30;;
13374;SDS011;6756;51.354;15.754;2023-03-13T15:21:28;1.90;;;1.23;;
13374;SDS011;6756;51.354;15.754;2023-03-13T15:25:32;1.97;;;1.20;;
13374;SDS011;6756;51.354;15.754;2023-03-13T15:29:32;1.10;;;1.00;;
13374;SDS011;6756;51.354;15.754;2023-03-13T15:33:33;3.27;;;1.10;;
13374;SDS011;6756;51.354;15.754;2023-03-13T15:37:34;3.10;;;1.47;;
13374;SDS011;6756;51.354;15.754;2023-03-13T15:41:36;2.00;;;1.20;;
13374;SDS011;6756;51.354;15.754;2023-03-13T15:45:37;2.23;;;1.53;;
13374;SDS011;6756;51.354;15.754;2023-03-13T15:49:40;1.27;;;1.10;;
13374;SDS011;6756;51.354;15.754;2023-03-13T15:53:41;2.60;;;1.27;;
13374;SDS011;6756;51.354;15.754;2023-03-13T15:57:46;2.37;;;1.30;;
13374;SDS011;6756;51.354;15.754;2023-03-13T16:01:49;3.30;;;1.30;;
13374;SDS011;6756;51.354;15.754;2023-03-13T16:05:50;1.40;;;0.90;;
13374;SDS011;6756;51.354;15.754;2023-03-13T16:09:53;1.83;;;1.33;;
13374;SDS011;6756;51.354;15.754;2023-03-13T16:13:54;3.03;;;1.47;;
13374;SDS011;6756;51.354;15.754;2023-03-13T16:17:55;2.70;;;1.33;;
13374;SDS011;6756;51.354;15.754;2023-03-13T16:21:56;5.00;;;1.23;;
13374;SDS011;6756;51.354;15.754;2023-03-13T16:25:56;1.87;;;1.20;;
13374;SDS011;6756;51.354;15.754;2023-03-13T16:29:57;2.93;;;1.37;;
13374;SDS011;6756;51.354;15.754;2023-03-13T16:33:58;2.40;;;1.30;;
13374;SDS011;6756;51.354;15.754;2023-03-13T16:38:00;2.43;;;1.50;;
13374;SDS011;6756;51.354;15.754;2023-03-13T16:42:00;3.83;;;1.47;;
13374;SDS011;6756;51.354;15.754;2023-03-13T16:46:02;4.60;;;1.67;;
13374;SDS011;6756;51.354;15.754;2023-03-13T16:50:13;2.10;;;1.53;;
13374;SDS011;6756;51.354;15.754;2023-03-13T16:54:22;4.20;;;1.67;;
13374;SDS011;6756;51.354;15.754;2023-03-13T16:58:23;2.23;;;1.60;;
13374;SDS011;6756;51.354;15.754;2023-03-13T17:02:24;2.73;;;1.77;;
13374;SDS011;6756;51.354;15.754;2023-03-13T17:06:28;3.53;;;1.97;;
13374;SDS011;6756;51.354;15.754;2023-03-13T17:10:33;6.17;;;2.10;;
13374;SDS011;6756;51.354;15.754;2023-03-13T17:14:34;3.20;;;2.10;;
13374;SDS011;6756;51.354;15.754;2023-03-13T17:18:35;2.77;;;1.90;;
13374;SDS011;6756;51.354;15.754;2023-03-13T17:22:36;3.20;;;2.27;;
13374;SDS011;6756;51.354;15.754;2023-03-13T17:26:37;3.07;;;2.43;;
13374;SDS011;6756;51.354;15.754;2023-03-13T17:30:39;3.23;;;1.77;;
13374;SDS011;6756;51.354;15.754;2023-03-13T17:34:40;4.53;;;2.53;;
13374;SDS011;6756;51.354;15.754;2023-03-13T17:38:44;4.50;;;2.33;;
13374;SDS011;6756;51.354;15.754;2023-03-13T17:42:46;3.67;;;2.87;;
13374;SDS011;6756;51.354;15.754;2023-03-13T17:46:47;5.63;;;3.10;;
13374;SDS011;6756;51.354;15.754;2023-03-13T17:50:50;6.70;;;3.43;;
13374;SDS011;6756;51.354;15.754;2023-03-13T17:54:51;4.47;;;3.07;;
13374;SDS011;6756;51.354;15.754;2023-03-13T17:58:53;5.87;;;2.90;;
13374;SDS011;6756;51.354;15.754;2023-03-13T18:02:58;5.60;;;3.40;;
13374;SDS011;6756;51.354;15.754;2023-03-13T18:06:59;5.33;;;3.30;;
13374;SDS011;6756;51.354;15.754;2023-03-13T18:11:00;5.03;;;3.33;;
13374;SDS011;6756;51.354;15.754;2023-03-13T18:15:01;4.40;;;3.20;;
13374;SDS011;6756;51.354;15.754;2023-03-13T18:19:04;5.13;;;3.43;;
13374;SDS011;6756;51.354;15.754;2023-03-13T18:23:25;5.00;;;3.10;;
13374;SDS011;6756;51.354;15.754;2023-03-13T18:27:26;5.33;;;3.20;;
13374;SDS011;6756;51.354;15.754;2023-03-13T18:31:28;3.77;;;2.77;;
13374;SDS011;6756;51.354;15.754;2023-03-13T18:35:30;6.80;;;3.00;;
13374;SDS011;6756;51.354;15.754;2023-03-13T18:39:31;3.50;;;2.67;;
13374;SDS011;6756;51.354;15.754;2023-03-13T18:43:32;4.20;;;3.00;;
13374;SDS011;6756;51.354;15.754;2023-03-13T18:47:33;6.87;;;3.57;;
13374;SDS011;6756;51.354;15.754;2023-03-13T18:51:34;4.90;;;2.73;;
13374;SDS011;6756;51.354;15.754;2023-03-13T18:55:35;4.30;;;2.83;;
13374;SDS011;6756;51.354;15.754;2023-03-13T18:59:36;4.03;;;3.17;;
13374;SDS011;6756;51.354;15.754;2023-03-13T19:03:36;4.43;;;2.70;;
13374;SDS011;6756;51.354;15.754;2023-03-13T19:07:37;4.17;;;2.80;;
13374;SDS011;6756;51.354;15.754;2023-03-13T19:11:39;3.33;;;2.80;;
13374;SDS011;6756;51.354;15.754;2023-03-13T19:15:40;4.57;;;2.93;;
13374;SDS011;6756;51.354;15.754;2023-03-13T19:19:41;3.77;;;2.53;;
13374;SDS011;6756;51.354;15.754;2023-03-13T19:23:42;4.97;;;2.90;;
13374;SDS011;6756;51.354;15.754;2023-03-13T19:27:43;4.73;;;3.30;;
13374;SDS011;6756;51.354;15.754;2023-03-13T19:31:44;5.70;;;2.80;;
13374;SDS011;6756;51.354;15.754;2023-03-13T19:35:45;4.13;;;2.67;;
13374;SDS011;6756;51.354;15.754;2023-03-13T19:39:46;5.23;;;2.63;;
13374;SDS011;6756;51.354;15.754;2023-03-13T19:43:48;4.03;;;2.60;;
13374;SDS011;6756;51.354;15.754;2023-03-13T19:47:49;3.90;;;2.33;;
13374;SDS011;6756;51.354;15.754;2023-03-13T19:51:49;3.43;;;2.33;;
13374;SDS011;6756;51.354;15.754;2023-03-13T19:55:50;3.77;;;2.23;;
13374;SDS011;6756;51.354;15.754;2023-03-13T19:59:51;3.80;;;2.40;;
13374;SDS011;6756;51.354;15.754;2023-03-13T20:03:52;3.23;;;2.20;;
13374;SDS011;6756;51.354;15.754;2023-03-13T20:07:53;4.33;;;2.30;;
13374;SDS011;6756;51.354;15.754;2023-03-13T20:11:54;3.97;;;2.10;;
13374;SDS011;6756;51.354;15.754;2023-03-13T20:15:55;3.67;;;2.20;;
13374;SDS011;6756;51.354;15.754;2023-03-13T20:19:57;3.47;;;2.20;;
13374;SDS011;6756;51.354;15.754;2023-03-13T20:23:58;3.27;;;1.80;;
13374;SDS011;6756;51.354;15.754;2023-03-13T20:27:59;3.97;;;1.93;;
13374;SDS011;6756;51.354;15.754;2023-03-13T20:32:00;3.53;;;2.00;;
13374;SDS011;6756;51.354;15.754;2023-03-13T20:36:08;2.17;;;1.80;;
13374;SDS011;6756;51.354;15.754;2023-03-13T20:40:10;3.60;;;2.23;;
13374;SDS011;6756;51.354;15.754;2023-03-13T20:44:11;4.03;;;1.80;;
13374;SDS011;6756;51.354;15.754;2023-03-13T20:48:12;3.63;;;2.20;;
13374;SDS011;6756;51.354;15.754;2023-03-13T20:52:13;2.77;;;2.07;;
13374;SDS011;6756;51.354;15.754;2023-03-13T20:56:14;4.50;;;2.70;;
13374;SDS011;6756;51.354;15.754;2023-03-13T21:00:15;3.17;;;1.93;;
13374;SDS011;6756;51.354;15.754;2023-03-13T21:04:17;4.50;;;2.43;;
13374;SDS011;6756;51.354;15.754;2023-03-13T21:08:17;3.73;;;2.20;;
13374;SDS011;6756;51.354;15.754;2023-03-13T21:12:18;3.27;;;2.20;;
13374;SDS011;6756;51.354;15.754;2023-03-13T21:16:19;4.27;;;2.20;;
13374;SDS011;6756;51.354;15.754;2023-03-13T21:20:20;3.83;;;2.30;;
13374;SDS011;6756;51.354;15.754;2023-03-13T21:24:22;4.13;;;2.70;;
13374;SDS011;6756;51.354;15.754;2023-03-13T21:28:23;3.77;;;2.50;;
13374;SDS011;6756;51.354;15.754;2023-03-13T21:32:23;4.67;;;2.20;;
13374;SDS011;6756;51.354;15.754;2023-03-13T21:36:25;3.37;;;2.47;;
13374;SDS011;6756;51.354;15.754;2023-03-13T21:40:25;3.70;;;2.43;;
13374;SDS011;6756;51.354;15.754;2023-03-13T21:44:27;2.93;;;2.10;;
13374;SDS011;6756;51.354;15.754;2023-03-13T21:48:28;2.73;;;2.07;;
13374;SDS011;6756;51.354;15.754;2023-03-13T21:52:29;3.60;;;2.30;;
13374;SDS011;6756;51.354;15.754;2023-03-13T21:56:31;3.17;;;1.73;;
13374;SDS011;6756;51.354;15.754;2023-03-13T22:00:32;2.90;;;1.13;;
13374;SDS011;6756;51.354;15.754;2023-03-13T22:04:33;2.83;;;1.20;;
13374;SDS011;6756;51.354;15.754;2023-03-13T22:08:34;1.03;;;0.77;;
13374;SDS011;6756;51.354;15.754;2023-03-13T22:12:35;1.00;;;0.70;;
13374;SDS011;6756;51.354;15.754;2023-03-13T22:16:36;1.70;;;1.00;;
13374;SDS011;6756;51.354;15.754;2023-03-13T22:20:37;1.53;;;0.90;;
13374;SDS011;6756;51.354;15.754;2023-03-13T22:24:38;1.20;;;0.83;;
13374;SDS011;6756;51.354;15.754;2023-03-13T22:28:39;1.17;;;0.83;;
13374;SDS011;6756;51.354;15.754;2023-03-13T22:32:40;1.27;;;0.97;;
13374;SDS011;6756;51.354;15.754;2023-03-13T22:36:41;1.17;;;0.70;;
13374;SDS011;6756;51.354;15.754;2023-03-13T22:40:42;1.07;;;0.80;;
13374;SDS011;6756;51.354;15.754;2023-03-13T22:44:42;1.40;;;0.57;;
13374;SDS011;6756;51.354;15.754;2023-03-13T22:48:43;1.17;;;0.63;;
13374;SDS011;6756;51.354;15.754;2023-03-13T22:52:44;1.10;;;0.70;;
13374;SDS011;6756;51.354;15.754;2023-03-13T22:56:45;1.00;;;0.50;;
13374;SDS011;6756;51.354;15.754;2023-03-13T23:00:46;0.83;;;0.77;;
13374;SDS011;6756;51.354;15.754;2023-03-13T23:04:47;1.03;;;0.73;;
13374;SDS011;6756;51.354;15.754;2023-03-13T23:08:48;3.43;;;0.90;;
13374;SDS011;6756;51.354;15.754;2023-03-13T23:12:49;1.13;;;0.70;;
13374;SDS011;6756;51.354;15.754;2023-03-13T23:16:50;1.23;;;0.90;;
13374;SDS011;6756;51.354;15.754;2023-03-13T23:20:51;2.37;;;0.87;;
13374;SDS011;6756;51.354;15.754;2023-03-13T23:24:52;2.87;;;0.90;;
13374;SDS011;6756;51.354;15.754;2023-03-13T23:28:54;1.40;;;0.87;;
13374;SDS011;6756;51.354;15.754;2023-03-13T23:32:54;1.57;;;1.00;;
13374;SDS011;6756;51.354;15.754;2023-03-13T23:36:55;2.43;;;1.60;;
13374;SDS011;6756;51.354;15.754;2023-03-13T23:40:57;2.27;;;1.20;;
13374;SDS011;6756;51.354;15.754;2023-03-13T23:44:57;3.73;;;1.23;;
13374;SDS011;6756;51.354;15.754;2023-03-13T23:48:59;2.20;;;1.40;;
13374;SDS011;6756;51.354;15.754;2023-03-13T23:53:00;5.23;;;1.83;;
13374;SDS011;6756;51.354;15.754;2023-03-13T23:57:01;4.73;;;1.80;;
